Time;durP1;ratioP1;P1;durP2;ratioP2;P2;SDS_P1;SDS_P2;PMS_P1;PMS_P2;Temp;Humidity;BMP_temperature;BMP_pressure;BME280_temperature;BME280_humidity;BME280_pressure;Samples;Min_cycle;Max_cycle;Signal;HPM_P1;HPM_P2
2022/04/08 00:01:23;;;;;;;11.77;3.03;;;9.30;99.90;;;;;;5092653;28;20198;-78
2022/04/08 00:03:50;;;;;;;11.70;3.23;;;9.20;99.90;;;;;;5104177;28;20285;-79
2022/04/08 00:06:17;;;;;;;16.10;4.30;;;9.20;99.90;;;;;;5096521;28;20222;-79
2022/04/08 00:08:45;;;;;;;10.90;3.10;;;9.20;99.90;;;;;;5091928;28;20289;-79
2022/04/08 00:11:13;;;;;;;14.63;3.50;;;9.20;99.90;;;;;;5092225;28;20209;-79
2022/04/08 00:13:41;;;;;;;17.50;4.33;;;9.10;99.90;;;;;;5103157;28;20254;-79
2022/04/08 00:16:09;;;;;;;14.90;3.80;;;9.10;99.90;;;;;;5112018;28;20228;-79
2022/04/08 00:18:37;;;;;;;17.27;4.00;;;9.10;99.90;;;;;;5096947;28;20736;-79
2022/04/08 00:21:04;;;;;;;14.20;3.40;;;9.10;99.90;;;;;;5092901;28;20289;-79
2022/04/08 00:23:32;;;;;;;13.63;3.20;;;9.00;99.90;;;;;;5100062;28;20652;-79
2022/04/08 00:25:59;;;;;;;11.30;3.37;;;9.00;99.90;;;;;;5112277;28;20227;-79
2022/04/08 00:28:28;;;;;;;15.50;3.37;;;9.00;99.90;;;;;;5110724;28;20204;-79
2022/04/08 00:30:54;;;;;;;13.60;2.93;;;9.00;99.90;;;;;;5092109;28;20233;-79
2022/04/08 00:33:21;;;;;;;15.47;3.20;;;9.00;99.90;;;;;;5092294;28;20241;-79
2022/04/08 00:35:49;;;;;;;14.40;3.27;;;8.90;99.90;;;;;;5091523;28;20313;-79
2022/04/08 00:38:16;;;;;;;12.03;2.63;;;8.90;99.90;;;;;;5105704;28;20203;-79
2022/04/08 00:40:43;;;;;;;11.43;2.80;;;8.80;99.90;;;;;;5094966;28;20290;-79
2022/04/08 00:43:14;;;;;;;14.30;3.00;;;8.80;99.90;;;;;;5107384;28;20245;-79
2022/04/08 00:45:42;;;;;;;15.50;3.13;;;8.80;99.90;;;;;;5099474;28;20260;-77
2022/04/08 00:48:10;;;;;;;14.67;3.07;;;8.80;99.90;;;;;;5105465;28;20281;-79
2022/04/08 00:50:38;;;;;;;14.27;3.13;;;8.70;99.90;;;;;;5103313;28;20239;-79
2022/04/08 00:53:06;;;;;;;14.60;2.80;;;8.70;99.90;;;;;;5100797;28;20225;-79
2022/04/08 00:55:33;;;;;;;13.63;2.60;;;8.70;99.90;;;;;;5097509;28;20221;-79
2022/04/08 00:58:02;;;;;;;15.10;2.60;;;8.60;99.90;;;;;;5100070;28;20312;-79
2022/04/08 01:00:32;;;;;;;16.30;3.10;;;8.70;99.90;;;;;;5094145;28;20199;-79
2022/04/08 01:03:01;;;;;;;16.03;3.07;;;8.60;99.90;;;;;;5105801;28;20224;-79
2022/04/08 01:05:28;;;;;;;15.23;3.17;;;8.60;99.90;;;;;;5102740;28;20204;-79
2022/04/08 01:07:55;;;;;;;14.10;3.30;;;8.50;99.90;;;;;;5103736;28;20236;-78
2022/04/08 01:10:23;;;;;;;19.07;2.90;;;8.50;99.90;;;;;;5094788;28;20233;-78
2022/04/08 01:12:50;;;;;;;18.17;3.20;;;8.50;99.90;;;;;;5105431;28;20250;-78
2022/04/08 01:15:18;;;;;;;13.07;2.90;;;8.50;99.90;;;;;;5101635;28;20285;-78
2022/04/08 01:17:45;;;;;;;18.83;3.03;;;8.50;99.90;;;;;;5111067;28;20209;-78
2022/04/08 01:20:14;;;;;;;14.17;3.23;;;8.40;99.90;;;;;;5094135;28;20285;-78
2022/04/08 01:22:41;;;;;;;18.57;3.43;;;8.40;99.90;;;;;;5107808;28;20633;-76
2022/04/08 01:25:11;;;;;;;13.83;2.77;;;8.40;99.90;;;;;;5099352;28;20902;-78
2022/04/08 01:27:39;;;;;;;17.37;2.90;;;8.40;99.90;;;;;;5091375;28;20219;-78
2022/04/08 01:30:08;;;;;;;18.57;3.50;;;8.30;99.90;;;;;;5091591;28;20230;-79
2022/04/08 01:32:35;;;;;;;14.17;3.03;;;8.30;99.90;;;;;;5091205;28;20199;-79
2022/04/08 01:35:03;;;;;;;16.87;3.60;;;8.30;99.90;;;;;;5099355;28;20268;-79
2022/04/08 01:37:30;;;;;;;20.33;3.23;;;8.30;99.90;;;;;;5105248;28;20198;-78
2022/04/08 01:39:57;;;;;;;17.07;3.20;;;8.30;99.90;;;;;;5103665;28;20225;-78
2022/04/08 01:42:25;;;;;;;19.23;4.20;;;8.30;99.90;;;;;;5109152;28;20226;-78
2022/04/08 01:44:53;;;;;;;12.67;2.67;;;8.30;99.90;;;;;;5106812;28;20202;-78
2022/04/08 01:47:20;;;;;;;15.10;3.43;;;8.20;99.90;;;;;;5106869;28;20317;-79
2022/04/08 01:49:47;;;;;;;15.23;2.90;;;8.20;99.90;;;;;;5104891;28;20277;-79
2022/04/08 01:52:14;;;;;;;14.40;3.17;;;8.20;99.90;;;;;;5109788;28;20233;-79
2022/04/08 01:54:41;;;;;;;13.77;3.20;;;8.20;99.90;;;;;;5106192;28;20225;-78
2022/04/08 01:57:08;;;;;;;13.03;2.77;;;8.10;99.90;;;;;;5109250;28;20286;-79
2022/04/08 01:59:36;;;;;;;15.10;2.40;;;8.10;99.90;;;;;;5102556;28;20253;-78
2022/04/08 02:02:05;;;;;;;15.10;3.17;;;8.10;99.90;;;;;;5111030;28;20284;-79
2022/04/08 02:04:32;;;;;;;13.60;3.33;;;8.20;99.90;;;;;;5106155;27;20201;-79
2022/04/08 02:07:02;;;;;;;10.47;2.73;;;8.10;99.90;;;;;;5103747;28;20248;-79
2022/04/08 02:09:28;;;;;;;12.50;2.70;;;8.10;99.90;;;;;;5105801;28;20274;-78
2022/04/08 02:11:56;;;;;;;11.63;3.00;;;8.00;99.90;;;;;;5104535;27;20288;-78
2022/04/08 02:14:23;;;;;;;13.80;2.63;;;8.00;99.90;;;;;;5101372;28;20191;-79
2022/04/08 02:16:51;;;;;;;13.70;2.80;;;8.00;99.90;;;;;;5102747;28;20225;-78
2022/04/08 02:19:18;;;;;;;9.90;2.53;;;8.00;99.90;;;;;;5099625;28;20696;-78
2022/04/08 02:21:45;;;;;;;15.10;3.17;;;7.90;99.90;;;;;;5102509;28;20244;-78
2022/04/08 02:24:13;;;;;;;10.50;2.80;;;7.90;99.90;;;;;;5100869;28;20242;-78
2022/04/08 02:26:40;;;;;;;13.30;3.20;;;7.90;99.90;;;;;;5105203;28;20703;-78
2022/04/08 02:29:07;;;;;;;11.63;2.73;;;7.90;99.90;;;;;;5105088;27;20204;-78
2022/04/08 02:31:34;;;;;;;12.67;2.83;;;7.90;99.90;;;;;;5102074;28;20198;-78
2022/04/08 02:34:03;;;;;;;13.07;3.03;;;7.80;99.90;;;;;;5102398;28;20252;-78
2022/04/08 02:36:30;;;;;;;12.63;2.67;;;7.80;99.90;;;;;;5104393;28;21690;-78
2022/04/08 02:38:56;;;;;;;10.03;2.50;;;7.90;99.90;;;;;;5105452;28;20286;-78
2022/04/08 02:41:23;;;;;;;10.80;2.80;;;7.80;99.90;;;;;;5103018;28;20279;-78
2022/04/08 02:43:50;;;;;;;15.87;3.10;;;7.80;99.90;;;;;;5105039;28;20276;-78
2022/04/08 02:46:17;;;;;;;11.27;2.23;;;7.70;99.90;;;;;;5104428;28;20245;-78
2022/04/08 02:48:44;;;;;;;14.43;2.37;;;7.70;99.90;;;;;;5105369;28;20221;-78
2022/04/08 02:51:13;;;;;;;13.20;2.97;;;7.70;99.90;;;;;;5105022;28;20208;-78
2022/04/08 02:53:40;;;;;;;9.43;2.40;;;7.80;99.90;;;;;;5102627;28;20194;-78
2022/04/08 02:56:07;;;;;;;13.43;2.93;;;7.70;99.90;;;;;;5101616;28;20237;-78
2022/04/08 02:58:35;;;;;;;17.50;3.17;;;7.70;99.90;;;;;;5101943;28;20253;-78
2022/04/08 03:01:02;;;;;;;10.37;2.60;;;7.70;99.90;;;;;;5104974;28;20296;-77
2022/04/08 03:03:29;;;;;;;13.13;3.07;;;7.70;99.90;;;;;;5104284;28;20285;-77
2022/04/08 03:05:56;;;;;;;13.00;2.97;;;7.70;99.90;;;;;;5102771;28;20259;-78
2022/04/08 03:08:24;;;;;;;12.60;3.03;;;7.60;99.90;;;;;;5100990;28;20292;-78
2022/04/08 03:10:52;;;;;;;8.67;2.53;;;7.50;99.90;;;;;;5101286;28;20296;-77
2022/04/08 03:13:18;;;;;;;8.60;2.87;;;7.50;99.90;;;;;;5101329;28;20224;-78
2022/04/08 03:15:45;;;;;;;9.37;2.80;;;7.60;99.90;;;;;;5086185;28;20309;-77
2022/04/08 03:18:13;;;;;;;12.30;3.27;;;7.50;99.90;;;;;;5101094;28;20193;-78
2022/04/08 03:20:40;;;;;;;14.57;3.30;;;7.50;99.90;;;;;;5101048;28;20872;-78
2022/04/08 03:23:07;;;;;;;8.67;2.70;;;7.40;99.90;;;;;;5098160;28;20248;-78
2022/04/08 03:25:35;;;;;;;14.40;3.37;;;7.50;99.90;;;;;;5106394;28;20591;-78
2022/04/08 03:28:02;;;;;;;11.20;2.93;;;7.40;99.90;;;;;;5103379;28;20221;-78
2022/04/08 03:30:31;;;;;;;12.20;2.50;;;7.30;99.90;;;;;;5100822;28;20615;-77
2022/04/08 03:32:58;;;;;;;15.90;2.83;;;7.20;99.90;;;;;;5101333;28;20191;-78
2022/04/08 03:35:26;;;;;;;11.43;2.53;;;7.20;99.90;;;;;;5104043;28;20318;-78
2022/04/08 03:37:52;;;;;;;9.00;2.80;;;7.20;99.90;;;;;;5103964;28;20235;-78
2022/04/08 03:40:20;;;;;;;12.57;3.00;;;7.20;99.90;;;;;;5096342;28;20280;-77
2022/04/08 03:42:48;;;;;;;8.73;2.60;;;7.00;99.90;;;;;;5101583;28;20216;-78
2022/04/08 03:45:15;;;;;;;10.90;2.40;;;7.00;99.90;;;;;;5101794;27;20243;-77
2022/04/08 03:47:42;;;;;;;9.93;2.73;;;6.90;99.90;;;;;;5100726;28;20305;-78
2022/04/08 03:50:09;;;;;;;11.33;2.60;;;7.00;99.90;;;;;;5096635;28;20302;-78
2022/04/08 03:52:36;;;;;;;8.33;2.20;;;7.00;99.90;;;;;;5094187;28;20289;-77
2022/04/08 03:55:04;;;;;;;11.20;2.67;;;7.10;99.90;;;;;;5104094;28;20197;-77
2022/04/08 03:57:31;;;;;;;13.60;2.30;;;7.00;99.90;;;;;;5099917;28;20228;-78
2022/04/08 03:59:59;;;;;;;12.40;2.63;;;7.20;99.90;;;;;;5100493;28;20256;-78
2022/04/08 04:02:26;;;;;;;12.30;2.70;;;7.10;99.90;;;;;;5101314;28;20256;-78
2022/04/08 04:04:59;;;;;;;11.57;2.73;;;7.10;99.90;;;;;;5103594;28;20617;-78
2022/04/08 04:07:26;;;;;;;10.53;2.20;;;7.00;99.90;;;;;;5102623;28;20225;-78
2022/04/08 04:09:53;;;;;;;9.37;2.30;;;6.90;99.90;;;;;;5098404;28;20201;-78
2022/04/08 04:12:20;;;;;;;12.37;2.40;;;6.90;99.90;;;;;;5106533;28;20638;-78
2022/04/08 04:14:47;;;;;;;9.43;2.53;;;6.90;99.90;;;;;;5099865;28;20567;-78
2022/04/08 04:17:15;;;;;;;8.93;2.77;;;6.90;99.90;;;;;;5091874;28;20229;-78
2022/04/08 04:19:42;;;;;;;7.27;2.37;;;7.00;99.90;;;;;;5092179;28;20288;-77
2022/04/08 04:22:09;;;;;;;7.50;2.40;;;6.90;99.90;;;;;;5093900;28;20228;-78
2022/04/08 04:24:36;;;;;;;8.90;2.63;;;6.90;99.90;;;;;;5094763;28;20241;-78
2022/04/08 04:27:03;;;;;;;5.50;2.27;;;6.90;99.90;;;;;;5104363;28;20309;-78
2022/04/08 04:29:30;;;;;;;6.00;2.80;;;6.90;99.90;;;;;;5079906;28;20230;-78
2022/04/08 04:31:59;;;;;;;6.27;2.27;;;6.90;99.90;;;;;;5102982;28;20241;-78
2022/04/08 04:34:27;;;;;;;5.03;2.10;;;6.90;99.90;;;;;;5096931;28;20213;-78
2022/04/08 04:36:54;;;;;;;4.33;2.17;;;7.00;99.90;;;;;;5106104;28;20356;-78
2022/04/08 04:39:21;;;;;;;3.23;2.10;;;7.00;99.90;;;;;;5105453;28;20285;-77
2022/04/08 04:41:48;;;;;;;2.90;1.63;;;7.10;99.90;;;;;;5111719;28;20231;-78
2022/04/08 04:44:15;;;;;;;3.00;1.40;;;7.10;99.90;;;;;;5108451;28;20966;-78
2022/04/08 04:46:43;;;;;;;2.50;1.70;;;7.20;99.90;;;;;;5091801;28;20259;-78
2022/04/08 04:49:11;;;;;;;4.10;1.47;;;7.10;99.90;;;;;;5099373;28;20709;-77
2022/04/08 04:51:39;;;;;;;2.47;1.60;;;7.00;99.90;;;;;;5111834;28;20222;-77
2022/04/08 04:54:06;;;;;;;1.80;1.27;;;7.10;99.90;;;;;;5096868;28;20244;-77
2022/04/08 04:56:33;;;;;;;3.97;1.50;;;7.10;99.90;;;;;;5091433;28;20285;-77
2022/04/08 04:59:00;;;;;;;2.07;1.00;;;7.10;99.90;;;;;;5090551;28;20303;-78
2022/04/08 05:01:27;;;;;;;2.90;1.00;;;7.10;99.90;;;;;;5091496;28;20296;-78
2022/04/08 05:03:54;;;;;;;1.80;1.10;;;7.20;99.90;;;;;;5091426;28;20229;-77
2022/04/08 05:06:21;;;;;;;1.67;0.97;;;7.30;99.90;;;;;;5100787;28;20258;-78
2022/04/08 05:08:49;;;;;;;1.83;1.00;;;7.10;99.90;;;;;;5088776;28;20764;-77
2022/04/08 05:11:16;;;;;;;1.37;0.73;;;7.20;99.90;;;;;;5106595;28;20261;-77
2022/04/08 05:13:43;;;;;;;1.67;0.80;;;7.20;99.90;;;;;;5116061;28;20193;-77
2022/04/08 05:16:10;;;;;;;1.33;0.90;;;7.20;99.90;;;;;;5108710;28;20292;-76
2022/04/08 05:18:38;;;;;;;1.17;0.87;;;7.30;99.90;;;;;;5114868;28;20218;-77
2022/04/08 05:21:05;;;;;;;1.73;0.80;;;7.50;99.90;;;;;;5095381;28;20217;-77
2022/04/08 05:23:33;;;;;;;1.30;0.80;;;7.50;99.90;;;;;;5101673;28;20254;-78
2022/04/08 05:26:02;;;;;;;2.17;0.90;;;7.60;99.90;;;;;;5075108;28;20693;-78
2022/04/08 05:28:29;;;;;;;0.90;0.77;;;7.70;99.90;;;;;;5085963;28;20328;-78
2022/04/08 05:30:56;;;;;;;2.40;0.77;;;7.60;99.90;;;;;;5105073;28;20206;-78
2022/04/08 05:33:23;;;;;;;0.90;0.77;;;7.90;99.90;;;;;;5107028;28;20225;-78
2022/04/08 05:35:50;;;;;;;2.00;0.90;;;7.90;99.90;;;;;;5095813;28;20265;-77
2022/04/08 05:38:17;;;;;;;1.50;0.93;;;7.90;99.90;;;;;;5096372;28;20215;-78
2022/04/08 05:40:44;;;;;;;1.40;1.00;;;8.00;99.90;;;;;;5100450;28;20224;-78
2022/04/08 05:43:13;;;;;;;1.80;1.10;;;8.20;99.90;;;;;;5100208;28;20289;-77
2022/04/08 05:45:40;;;;;;;1.53;1.20;;;8.00;99.90;;;;;;5096543;28;20230;-77
2022/04/08 05:48:08;;;;;;;2.60;1.30;;;8.20;99.90;;;;;;5115494;28;20616;-78
2022/04/08 05:50:35;;;;;;;4.53;1.20;;;8.30;99.90;;;;;;5115190;28;20744;-78
2022/04/08 05:53:03;;;;;;;3.23;1.40;;;8.50;99.90;;;;;;5096498;28;20271;-78
2022/04/08 05:55:29;;;;;;;2.87;1.77;;;8.50;99.90;;;;;;5093726;28;20201;-78
2022/04/08 05:57:56;;;;;;;3.50;1.53;;;8.60;99.90;;;;;;5093921;28;20222;-78
2022/04/08 06:00:25;;;;;;;5.60;1.47;;;8.70;99.90;;;;;;5096126;28;20338;-78
2022/04/08 06:02:55;;;;;;;7.93;1.90;;;8.90;99.90;;;;;;5110959;28;20273;-78
2022/04/08 06:05:22;;;;;;;4.80;1.90;;;9.10;99.90;;;;;;5108807;28;20197;-78
2022/04/08 06:07:51;;;;;;;6.20;1.80;;;9.20;99.90;;;;;;5098635;28;20279;-78
2022/04/08 06:10:18;;;;;;;9.20;1.97;;;9.50;99.90;;;;;;5094505;28;20666;-79
2022/04/08 06:12:46;;;;;;;8.60;1.97;;;9.70;99.90;;;;;;5094055;28;20753;-79
2022/04/08 06:15:14;;;;;;;7.50;2.23;;;9.90;99.90;;;;;;5094068;28;20217;-79
2022/04/08 06:17:42;;;;;;;7.00;1.90;;;10.10;99.90;;;;;;5094150;28;20202;-80
2022/04/08 06:20:11;;;;;;;8.43;2.30;;;10.20;99.90;;;;;;5092858;28;20237;-80
2022/04/08 06:22:39;;;;;;;11.03;2.57;;;10.30;99.90;;;;;;5094135;28;20730;-79
2022/04/08 06:25:08;;;;;;;6.40;1.77;;;10.30;99.90;;;;;;5094705;28;20202;-80
2022/04/08 06:27:35;;;;;;;7.00;1.87;;;10.30;99.90;;;;;;5097492;28;20214;-79
2022/04/08 06:30:02;;;;;;;5.90;2.00;;;10.50;99.90;;;;;;5093028;28;20229;-80
2022/04/08 06:32:29;;;;;;;6.70;2.00;;;10.50;99.90;;;;;;5093836;28;20241;-79
2022/04/08 06:34:58;;;;;;;6.23;2.00;;;10.50;99.90;;;;;;5097404;28;20685;-79
2022/04/08 06:37:28;;;;;;;6.43;1.93;;;10.40;99.90;;;;;;5114193;28;20221;-80
2022/04/08 06:39:55;;;;;;;8.77;1.87;;;10.60;99.90;;;;;;5095745;28;20191;-79
2022/04/08 06:42:23;;;;;;;7.37;1.80;;;10.60;99.90;;;;;;5094087;28;20225;-80
2022/04/08 06:44:52;;;;;;;5.73;1.40;;;10.50;99.90;;;;;;5093935;28;20194;-80
2022/04/08 06:47:19;;;;;;;4.17;1.67;;;10.60;99.90;;;;;;5099058;28;20201;-80
2022/04/08 06:49:46;;;;;;;5.27;1.60;;;10.60;99.90;;;;;;5099236;28;20199;-80
2022/04/08 06:52:15;;;;;;;7.23;1.73;;;10.60;99.90;;;;;;5093766;28;20230;-79
2022/04/08 06:54:42;;;;;;;3.47;1.67;;;10.60;99.90;;;;;;5094251;28;20233;-80
2022/04/08 06:57:09;;;;;;;4.10;1.70;;;10.70;99.90;;;;;;5102872;28;20289;-79
2022/04/08 06:59:36;;;;;;;4.23;1.50;;;10.70;99.90;;;;;;5101869;28;20412;-79
2022/04/08 07:02:04;;;;;;;6.83;2.20;;;10.70;99.90;;;;;;5101906;28;20285;-80
2022/04/08 07:04:31;;;;;;;3.73;1.40;;;10.80;99.90;;;;;;5106226;28;20225;-80
2022/04/08 07:06:58;;;;;;;5.43;1.20;;;10.80;99.90;;;;;;5111370;28;20284;-80
2022/04/08 07:09:27;;;;;;;6.23;1.77;;;10.70;99.90;;;;;;5093033;28;20646;-80
2022/04/08 07:11:54;;;;;;;5.50;1.50;;;10.70;99.90;;;;;;5093731;28;20249;-80
2022/04/08 07:14:21;;;;;;;5.33;1.50;;;10.70;99.90;;;;;;5100896;28;20284;-80
2022/04/08 07:16:47;;;;;;;5.23;1.40;;;10.70;99.90;;;;;;5091124;28;20197;-79
2022/04/08 07:19:14;;;;;;;7.60;1.57;;;10.60;99.90;;;;;;5093369;28;20210;-79
2022/04/08 07:21:41;;;;;;;5.00;1.53;;;10.70;99.90;;;;;;5089833;28;20301;-80
2022/04/08 07:24:09;;;;;;;6.13;1.43;;;10.60;99.90;;;;;;5090985;28;20211;-79
2022/04/08 07:26:37;;;;;;;4.30;1.20;;;10.60;99.90;;;;;;5082491;28;20207;-80
2022/04/08 07:29:07;;;;;;;4.03;1.10;;;10.70;99.90;;;;;;5111070;28;20776;-80
2022/04/08 07:31:34;;;;;;;5.47;1.17;;;10.60;99.90;;;;;;5100020;28;20586;-80
2022/04/08 07:34:01;;;;;;;2.47;1.00;;;10.60;99.90;;;;;;5102147;28;20255;-80
2022/04/08 07:36:28;;;;;;;6.33;1.30;;;10.60;99.90;;;;;;5096722;28;20257;-79
2022/04/08 07:38:55;;;;;;;3.33;1.40;;;10.60;99.90;;;;;;5095366;28;20316;-80
2022/04/08 07:41:22;;;;;;;7.53;1.87;;;10.50;99.90;;;;;;5093017;28;20198;-81
2022/04/08 07:43:50;;;;;;;6.33;1.90;;;10.50;99.90;;;;;;5101941;28;20230;-80
2022/04/08 07:46:17;;;;;;;2.50;1.00;;;10.40;99.90;;;;;;5093036;28;20279;-80
2022/04/08 07:48:44;;;;;;;0.90;0.40;;;10.40;99.90;;;;;;5092183;28;20277;-80
2022/04/08 07:51:11;;;;;;;2.27;0.90;;;10.20;99.90;;;;;;5092293;28;20203;-79
2022/04/08 07:53:38;;;;;;;2.83;1.40;;;10.20;99.90;;;;;;5092433;28;20291;-80
2022/04/08 07:56:05;;;;;;;3.67;1.47;;;10.40;99.90;;;;;;5092483;28;20293;-79
2022/04/08 07:58:32;;;;;;;8.23;1.70;;;10.50;99.90;;;;;;5092059;28;20637;-79
2022/04/08 08:01:00;;;;;;;6.17;2.27;;;10.50;99.90;;;;;;5092161;28;20277;-80
2022/04/08 08:03:27;;;;;;;9.27;2.27;;;10.60;99.90;;;;;;5092491;28;21068;-80
2022/04/08 08:05:54;;;;;;;12.83;2.77;;;10.60;99.90;;;;;;5092509;28;20230;-80
2022/04/08 08:08:21;;;;;;;9.63;2.20;;;10.70;99.90;;;;;;5105379;28;20304;-80
2022/04/08 08:10:49;;;;;;;11.53;2.60;;;10.80;99.90;;;;;;5112894;28;20225;-79
2022/04/08 08:13:16;;;;;;;12.33;2.40;;;10.80;99.90;;;;;;5092343;28;20206;-80
2022/04/08 08:15:43;;;;;;;12.20;2.53;;;10.80;99.90;;;;;;5092714;28;20256;-80
2022/04/08 08:18:11;;;;;;;13.20;2.73;;;10.90;99.90;;;;;;5094364;28;20294;-79
2022/04/08 08:20:38;;;;;;;7.07;1.70;;;11.00;99.90;;;;;;5112786;28;20585;-80
2022/04/08 08:23:06;;;;;;;8.67;2.10;;;11.10;99.90;;;;;;5112684;28;20323;-79
2022/04/08 08:25:33;;;;;;;6.10;1.87;;;11.10;99.90;;;;;;5112879;28;20202;-79
2022/04/08 08:28:02;;;;;;;8.47;1.80;;;11.20;99.90;;;;;;5094853;28;20299;-80
2022/04/08 08:30:31;;;;;;;7.80;2.07;;;11.20;99.90;;;;;;5104118;28;20281;-79
2022/04/08 08:32:58;;;;;;;5.63;1.90;;;11.20;99.90;;;;;;5112654;28;20197;-80
2022/04/08 08:35:32;;;;;;;6.43;1.67;;;11.20;99.90;;;;;;5111672;28;20306;-80
2022/04/08 08:38:00;;;;;;;5.00;1.40;;;11.30;99.90;;;;;;5111918;28;20193;-79
2022/04/08 08:40:31;;;;;;;7.30;1.60;;;11.40;99.90;;;;;;5112180;28;20281;-79
2022/04/08 08:42:58;;;;;;;5.53;1.90;;;11.50;99.90;;;;;;5110312;28;20206;-79
2022/04/08 08:45:29;;;;;;;5.90;1.57;;;11.50;99.90;;;;;;5111943;28;20297;-79
2022/04/08 08:48:03;;;;;;;6.57;1.50;;;11.50;99.90;;;;;;5112105;28;20600;-80
2022/04/08 08:50:32;;;;;;;3.93;1.30;;;11.60;99.90;;;;;;5104831;28;20277;-79
2022/04/08 08:52:59;;;;;;;4.50;1.20;;;11.60;99.90;;;;;;5091815;28;20741;-80
2022/04/08 08:55:26;;;;;;;4.70;1.13;;;11.60;99.90;;;;;;5103472;28;20197;-80
2022/04/08 08:57:53;;;;;;;6.67;1.70;;;11.70;99.90;;;;;;5111875;28;20683;-80
2022/04/08 09:00:23;;;;;;;6.27;1.43;;;11.80;99.90;;;;;;5103376;28;20244;-80
2022/04/08 09:02:51;;;;;;;8.53;1.60;;;11.80;99.90;;;;;;5108028;28;20198;-80
2022/04/08 09:05:19;;;;;;;8.90;1.83;;;11.80;99.90;;;;;;5112244;28;20202;-80
2022/04/08 09:07:56;;;;;;;8.63;2.17;;;12.00;99.90;;;;;;5111918;28;20237;-80
2022/04/08 09:10:29;;;;;;;9.13;1.63;;;12.00;99.90;;;;;;5112209;28;20233;-80
2022/04/08 09:12:56;;;;;;;8.47;2.23;;;12.00;99.90;;;;;;5111577;28;20285;-80
2022/04/08 09:15:23;;;;;;;9.03;1.80;;;12.20;99.90;;;;;;5112300;28;20622;-81
2022/04/08 09:17:51;;;;;;;11.87;2.77;;;12.40;99.90;;;;;;5108842;28;20206;-81
2022/04/08 09:20:19;;;;;;;11.23;2.20;;;12.50;99.90;;;;;;5105822;28;20198;-82
2022/04/08 09:22:56;;;;;;;12.43;2.43;;;12.90;99.90;;;;;;5112105;28;20206;-81
2022/04/08 09:25:26;;;;;;;12.83;2.90;;;13.10;99.90;;;;;;5109866;28;20280;-80
2022/04/08 09:27:55;;;;;;;11.73;3.07;;;13.70;99.90;;;;;;5111643;28;20276;-81
2022/04/08 09:30:22;;;;;;;14.47;2.70;;;14.30;99.90;;;;;;5111595;28;20253;-81
2022/04/08 09:32:50;;;;;;;12.70;3.07;;;14.20;99.90;;;;;;5096997;28;20678;-81
2022/04/08 09:35:18;;;;;;;10.33;2.60;;;14.20;99.90;;;;;;5101494;28;20261;-81
2022/04/08 09:38:01;;;;;;;12.87;3.27;;;14.60;99.90;;;;;;5111339;28;20284;-81
2022/04/08 09:40:36;;;;;;;14.33;3.70;;;14.60;99.90;;;;;;5111750;28;20205;-81
2022/04/08 09:43:03;;;;;;;14.57;2.83;;;14.50;99.90;;;;;;5111812;28;20220;-82
2022/04/08 09:45:31;;;;;;;12.93;3.23;;;14.30;99.90;;;;;;5111995;28;20625;-81
2022/04/08 09:47:58;;;;;;;17.90;4.97;;;14.20;99.90;;;;;;5111627;28;20206;-81
2022/04/08 09:50:26;;;;;;;17.50;3.63;;;14.10;99.90;;;;;;5102700;28;20222;-81
2022/04/08 09:52:53;;;;;;;18.97;3.60;;;13.90;99.90;;;;;;5103685;28;20250;-81
2022/04/08 09:55:24;;;;;;;21.60;4.33;;;14.30;99.90;;;;;;5095945;28;20356;-81
2022/04/08 09:57:56;;;;;;;21.57;4.70;;;14.80;99.90;;;;;;5107010;28;20202;-81
2022/04/08 10:00:24;;;;;;;19.30;4.30;;;14.60;99.90;;;;;;5113785;28;20241;-81
2022/04/08 10:02:54;;;;;;;19.10;4.17;;;14.00;99.90;;;;;;5097753;28;20281;-81
2022/04/08 10:05:22;;;;;;;17.50;4.30;;;13.50;99.90;;;;;;5074795;28;20546;-81
2022/04/08 10:07:52;;;;;;;19.40;4.53;;;13.30;99.90;;;;;;5074554;28;20616;-81
2022/04/08 10:10:25;;;;;;;20.20;4.27;;;13.00;99.90;;;;;;5077706;28;20787;-81
2022/04/08 10:13:11;;;;;;;23.17;5.53;;;12.80;99.90;;;;;;5094660;28;20285;-81
2022/04/08 10:15:41;;;;;;;24.13;4.87;;;12.80;99.90;;;;;;5094656;28;20213;-81
2022/04/08 10:18:08;;;;;;;26.73;5.23;;;12.80;99.90;;;;;;5103471;28;20202;-81
2022/04/08 10:20:38;;;;;;;24.93;4.70;;;13.10;99.90;;;;;;5114998;27;20281;-81
2022/04/08 10:23:07;;;;;;;19.83;4.50;;;13.30;99.90;;;;;;5113968;28;20240;-81
2022/04/08 10:25:40;;;;;;;18.30;4.47;;;13.40;99.90;;;;;;5108199;28;20225;-81
2022/04/08 10:28:09;;;;;;;27.07;4.97;;;13.40;99.90;;;;;;5114990;28;20202;-81
2022/04/08 10:30:43;;;;;;;24.60;5.07;;;13.20;99.90;;;;;;5114174;28;20683;-81
2022/04/08 10:33:12;;;;;;;20.27;4.70;;;12.90;99.90;;;;;;5077653;28;20278;-81
2022/04/08 10:35:39;;;;;;;25.07;5.00;;;12.70;99.90;;;;;;5114333;28;20233;-81
2022/04/08 10:38:08;;;;;;;28.43;5.27;;;12.60;99.90;;;;;;5107407;28;20248;-81
2022/04/08 10:40:36;;;;;;;19.80;4.83;;;12.80;99.90;;;;;;5104645;28;20301;-81
2022/04/08 10:43:06;;;;;;;24.90;5.37;;;13.20;99.90;;;;;;5093868;28;20229;-80
2022/04/08 10:45:34;;;;;;;26.53;5.13;;;13.90;99.90;;;;;;5094054;28;20241;-81
2022/04/08 10:48:02;;;;;;;20.80;4.87;;;15.50;99.90;;;;;;5114494;28;20289;-81
2022/04/08 10:50:30;;;;;;;23.50;4.50;;;16.60;99.90;;;;;;5114014;28;20689;-81
2022/04/08 10:53:05;;;;;;;25.10;5.27;;;16.80;99.90;;;;;;5113967;28;20622;-81
2022/04/08 10:55:32;;;;;;;24.60;4.97;;;16.50;99.90;;;;;;5114224;28;20264;-81
2022/04/08 10:58:00;;;;;;;22.80;4.57;;;16.80;99.90;;;;;;5109361;28;20200;-81
2022/04/08 11:00:40;;;;;;;23.23;4.27;;;17.60;99.90;;;;;;5110592;28;20574;-82
2022/04/08 11:03:10;;;;;;;20.43;4.50;;;16.90;99.90;;;;;;5073523;28;20203;-81
2022/04/08 11:05:38;;;;;;;19.65;5.05;;;16.60;99.90;;;;;;5073510;28;20199;-81
2022/04/08 11:08:06;;;;;;;18.70;4.30;;;16.50;99.90;;;;;;5073182;28;20201;-81
2022/04/08 11:10:33;;;;;;;22.73;4.55;;;17.00;99.90;;;;;;5100338;28;20654;-80
2022/04/08 11:13:01;;;;;;;20.88;4.47;;;18.00;99.90;;;;;;5113818;28;20686;-81
2022/04/08 11:15:30;;;;;;;20.63;4.25;;;17.90;99.90;;;;;;5111655;28;20581;-82
2022/04/08 11:17:59;;;;;;;17.80;4.55;;;17.80;99.90;;;;;;5093314;28;20195;-80
2022/04/08 11:20:27;;;;;;;17.38;3.75;;;17.00;99.90;;;;;;5103187;28;20198;-82
2022/04/08 11:22:55;;;;;;;19.42;4.60;;;16.10;99.90;;;;;;5113293;28;20214;-82
2022/04/08 11:25:23;;;;;;;22.40;4.40;;;15.70;99.90;;;;;;5095093;28;20733;-81
2022/04/08 11:28:00;;;;;;;20.40;4.37;;;15.30;99.90;;;;;;5092724;28;20309;-82
2022/04/08 11:30:30;;;;;;;17.87;4.27;;;15.20;99.90;;;;;;5084914;28;20223;-81
2022/04/08 11:32:57;;;;;;;22.87;4.50;;;15.20;99.90;;;;;;5072833;28;20202;-82
2022/04/08 11:35:28;;;;;;;20.43;4.53;;;15.40;99.90;;;;;;5092942;28;20687;-81
2022/04/08 11:37:56;;;;;;;16.77;3.53;;;15.10;99.90;;;;;;5092652;28;20198;-81
2022/04/08 11:40:23;;;;;;;14.30;3.70;;;15.50;99.90;;;;;;5093453;28;20226;-81
2022/04/08 11:42:50;;;;;;;16.50;3.37;;;15.60;99.90;;;;;;5092706;28;20688;-79
2022/04/08 11:45:17;;;;;;;20.03;3.93;;;15.40;99.90;;;;;;5092986;28;20247;-81
2022/04/08 11:47:50;;;;;;;16.43;4.07;;;15.20;99.90;;;;;;5112225;28;20270;-79
2022/04/08 11:50:25;;;;;;;13.07;3.20;;;15.40;99.90;;;;;;5099657;28;20670;-81
2022/04/08 11:52:53;;;;;;;15.57;3.77;;;15.10;99.90;;;;;;5092747;28;20198;-81
2022/04/08 11:55:25;;;;;;;18.30;3.90;;;15.00;99.90;;;;;;5092636;28;20194;-81
2022/04/08 11:57:52;;;;;;;18.50;4.00;;;14.60;99.90;;;;;;5093253;28;20384;-81
2022/04/08 12:00:25;;;;;;;13.20;3.17;;;14.30;99.90;;;;;;5075888;28;20996;-81
2022/04/08 12:02:54;;;;;;;13.07;3.00;;;14.10;99.90;;;;;;5093441;28;20642;-81
2022/04/08 12:05:24;;;;;;;14.67;3.20;;;13.70;99.90;;;;;;5098476;28;20293;-80
2022/04/08 12:07:52;;;;;;;11.67;3.07;;;13.40;99.90;;;;;;5112971;28;20208;-79
2022/04/08 12:10:22;;;;;;;16.90;3.40;;;13.30;99.90;;;;;;5110914;28;20308;-79
2022/04/08 12:12:49;;;;;;;13.53;2.73;;;13.00;99.90;;;;;;5092519;28;20339;-80
2022/04/08 12:15:16;;;;;;;12.33;2.77;;;12.80;99.90;;;;;;5107846;28;20284;-79
2022/04/08 12:17:44;;;;;;;9.60;2.40;;;13.20;99.90;;;;;;5097976;28;20230;-79
2022/04/08 12:20:17;;;;;;;11.63;2.57;;;13.50;99.90;;;;;;5091745;28;20209;-80
2022/04/08 12:22:46;;;;;;;9.60;2.27;;;13.70;99.90;;;;;;5092069;28;20315;-80
2022/04/08 12:25:14;;;;;;;9.40;2.03;;;14.30;99.90;;;;;;5091662;28;20251;-80
2022/04/08 12:27:42;;;;;;;8.10;2.23;;;14.60;99.90;;;;;;5095465;28;20223;-80
2022/04/08 12:30:09;;;;;;;8.93;2.30;;;15.40;99.90;;;;;;5112378;28;20260;-80
2022/04/08 12:32:38;;;;;;;8.57;2.03;;;15.60;99.90;;;;;;5095546;28;20218;-81
2022/04/08 12:35:08;;;;;;;7.07;1.73;;;15.30;99.90;;;;;;5092635;28;20233;-81
2022/04/08 12:37:37;;;;;;;8.10;2.00;;;14.70;99.90;;;;;;5091663;28;20230;-81
2022/04/08 12:40:06;;;;;;;8.13;2.30;;;14.50;99.90;;;;;;5092446;28;20198;-82
2022/04/08 12:42:35;;;;;;;7.70;2.07;;;15.30;99.90;;;;;;5091870;28;20230;-81
2022/04/08 12:45:02;;;;;;;7.47;1.90;;;15.10;99.90;;;;;;5103384;28;20202;-81
2022/04/08 12:47:29;;;;;;;5.60;1.63;;;14.50;99.90;;;;;;5111884;28;20193;-81
2022/04/08 12:49:56;;;;;;;7.13;2.10;;;14.20;99.90;;;;;;5084317;28;20211;-81